createdAt,value
2023-03-27T00:01:42.609Z,2.18
2023-03-27T00:04:09.109Z,2.21
2023-03-27T00:06:35.567Z,2.12
2023-03-27T00:09:01.914Z,2.09
2023-03-27T00:11:28.253Z,2.29
2023-03-27T00:13:54.923Z,2.14
2023-03-27T00:16:21.659Z,1.83
2023-03-27T00:18:48.240Z,1.97
2023-03-27T00:21:14.570Z,2.02
2023-03-27T00:23:40.940Z,1.72
2023-03-27T00:26:07.334Z,1.85
2023-03-27T00:28:33.682Z,1.69
2023-03-27T00:31:00.309Z,1.71
2023-03-27T00:33:26.789Z,1.39
2023-03-27T00:35:53.165Z,1.22
2023-03-27T00:38:19.539Z,1.13
2023-03-27T00:40:45.870Z,1.05
2023-03-27T00:43:12.260Z,1.26
2023-03-27T00:45:38.631Z,1.19
2023-03-27T00:48:05.094Z,1.28
2023-03-27T00:50:31.456Z,1.19
2023-03-27T00:52:57.790Z,1.16
2023-03-27T00:55:24.130Z,1.41
2023-03-27T00:57:50.464Z,1.33
2023-03-27T01:00:16.801Z,1.29
2023-03-27T01:02:43.261Z,1.34
2023-03-27T01:05:09.643Z,1.18
2023-03-27T01:07:36.046Z,1.48
2023-03-27T01:10:02.394Z,1.36
2023-03-27T01:12:28.748Z,1.36
2023-03-27T01:14:55.119Z,1.20
2023-03-27T01:17:21.515Z,1.37
2023-03-27T01:19:47.941Z,1.21
2023-03-27T01:22:14.286Z,1.31
2023-03-27T01:24:40.666Z,1.21
2023-03-27T01:27:07.003Z,1.23
2023-03-27T01:29:33.398Z,1.27
2023-03-27T01:31:59.788Z,1.16
2023-03-27T01:34:26.177Z,1.00
2023-03-27T01:36:52.574Z,1.13
2023-03-27T01:39:18.912Z,1.00
2023-03-27T01:41:45.254Z,1.10
2023-03-27T01:44:11.586Z,1.08
2023-03-27T01:46:38.040Z,1.01
2023-03-27T01:49:04.451Z,1.09
2023-03-27T01:51:30.824Z,1.02
2023-03-27T01:53:57.219Z,1.04
2023-03-27T01:56:23.603Z,1.07
2023-03-27T01:58:49.963Z,1.12
2023-03-27T02:01:16.359Z,1.02
2023-03-27T02:03:42.738Z,1.04
2023-03-27T02:06:09.083Z,1.03
2023-03-27T02:08:35.432Z,0.91
2023-03-27T02:11:01.829Z,1.01
2023-03-27T02:13:28.175Z,0.84
2023-03-27T02:15:54.520Z,0.86
2023-03-27T02:18:20.900Z,0.93
2023-03-27T02:20:47.235Z,0.75
2023-03-27T02:23:13.612Z,0.75
2023-03-27T02:25:39.994Z,0.59
2023-03-27T02:28:06.332Z,0.63
2023-03-27T02:30:32.694Z,0.54
2023-03-27T02:32:59.132Z,0.55
2023-03-27T02:35:25.504Z,0.49
2023-03-27T02:37:51.859Z,0.51
2023-03-27T02:40:18.190Z,0.44
2023-03-27T02:42:44.526Z,0.58
2023-03-27T02:45:10.853Z,0.53
2023-03-27T02:47:37.205Z,0.58
2023-03-27T02:50:03.654Z,0.52
2023-03-27T02:52:30.058Z,0.55
2023-03-27T02:54:56.438Z,0.61
2023-03-27T02:57:24.490Z,0.64
2023-03-27T02:59:51.471Z,0.72
2023-03-27T03:02:17.873Z,0.80
2023-03-27T03:04:44.344Z,0.71
2023-03-27T03:07:10.721Z,0.75
2023-03-27T03:09:40.570Z,0.81
2023-03-27T03:12:07.670Z,0.71
2023-03-27T03:14:34.008Z,0.72
2023-03-27T03:17:00.365Z,0.75
2023-03-27T03:19:26.744Z,0.81
2023-03-27T03:21:53.117Z,0.83
2023-03-27T03:24:19.486Z,0.79
2023-03-27T03:26:45.870Z,0.85
2023-03-27T03:29:13.003Z,0.92
2023-03-27T03:31:39.464Z,0.82
2023-03-27T03:34:05.823Z,0.73
2023-03-27T03:36:32.157Z,0.70
2023-03-27T03:38:58.488Z,0.69
2023-03-27T03:41:24.811Z,0.74
2023-03-27T03:43:51.203Z,0.76
2023-03-27T03:46:17.574Z,0.68
2023-03-27T03:48:43.980Z,0.71
2023-03-27T03:51:10.373Z,0.62
2023-03-27T03:53:36.719Z,0.66
2023-03-27T03:56:03.043Z,0.48
2023-03-27T03:58:34.723Z,0.48
2023-03-27T04:01:01.608Z,0.53
2023-03-27T04:03:27.984Z,0.45
2023-03-27T04:05:54.474Z,0.41
2023-03-27T04:08:20.813Z,0.51
2023-03-27T04:10:47.187Z,0.44
2023-03-27T04:13:13.556Z,0.60
2023-03-27T04:15:39.991Z,0.69
2023-03-27T04:18:06.673Z,0.63
2023-03-27T04:20:33.113Z,0.65
2023-03-27T04:22:59.486Z,0.80
2023-03-27T04:25:25.813Z,0.68
2023-03-27T04:27:52.182Z,0.80
2023-03-27T04:30:18.531Z,0.83
2023-03-27T04:32:44.946Z,0.82
2023-03-27T04:35:11.351Z,0.75
2023-03-27T04:37:37.694Z,0.69
2023-03-27T04:40:04.076Z,0.67
2023-03-27T04:42:30.468Z,0.76
2023-03-27T04:44:56.840Z,0.85
2023-03-27T04:47:23.248Z,0.83
2023-03-27T04:49:49.653Z,1.00
2023-03-27T04:52:16.031Z,1.59
2023-03-27T04:54:42.423Z,1.30
2023-03-27T04:57:08.812Z,0.58
2023-03-27T04:59:35.228Z,0.60
2023-03-27T05:02:01.660Z,0.61
2023-03-27T05:04:28.045Z,0.63
2023-03-27T05:06:54.436Z,0.52
2023-03-27T05:09:20.775Z,0.50
2023-03-27T05:11:47.142Z,0.51
2023-03-27T05:14:13.494Z,0.53
2023-03-27T05:16:39.954Z,0.65
2023-03-27T05:19:06.317Z,0.84
2023-03-27T05:21:32.696Z,0.63
2023-03-27T05:23:59.047Z,0.52
2023-03-27T05:26:25.372Z,0.60
2023-03-27T05:28:51.749Z,4.85
2023-03-27T05:31:18.111Z,3.57
2023-03-27T05:33:44.479Z,5.62
2023-03-27T05:36:10.865Z,6.46
2023-03-27T05:38:37.219Z,3.40
2023-03-27T05:41:03.551Z,1.15
2023-03-27T05:43:29.897Z,0.81
2023-03-27T05:45:56.295Z,0.90
2023-03-27T05:48:22.717Z,0.99
2023-03-27T05:50:49.106Z,0.76
2023-03-27T05:53:15.505Z,0.53
2023-03-27T05:55:41.900Z,0.35
2023-03-27T05:58:08.267Z,0.35
2023-03-27T06:00:34.606Z,0.38
2023-03-27T06:03:01.110Z,0.35
2023-03-27T06:05:27.558Z,0.46
2023-03-27T06:07:53.907Z,0.42
2023-03-27T06:10:20.304Z,0.36
2023-03-27T06:12:48.706Z,0.34
2023-03-27T06:15:15.397Z,0.38
2023-03-27T06:17:41.774Z,0.40
2023-03-27T06:20:08.118Z,0.37
2023-03-27T06:22:34.509Z,0.40
2023-03-27T06:25:00.845Z,0.46
2023-03-27T06:27:27.212Z,0.47
2023-03-27T06:29:53.603Z,0.54
2023-03-27T06:32:19.936Z,0.58
2023-03-27T06:34:46.306Z,0.70
2023-03-27T06:37:12.699Z,0.63
2023-03-27T06:39:39.040Z,0.85
2023-03-27T06:42:05.412Z,1.14
2023-03-27T06:44:31.751Z,0.93
2023-03-27T06:46:58.129Z,0.92
2023-03-27T06:49:24.479Z,0.69
2023-03-27T06:51:50.807Z,0.78
2023-03-27T06:54:17.180Z,0.83
2023-03-27T06:56:43.551Z,1.16
2023-03-27T06:59:09.935Z,1.43
2023-03-27T07:01:36.327Z,1.27
2023-03-27T07:04:02.726Z,1.13
2023-03-27T07:06:29.120Z,0.99
2023-03-27T07:08:55.515Z,0.97
2023-03-27T07:11:21.881Z,0.85
2023-03-27T07:13:48.240Z,1.24
2023-03-27T07:16:14.617Z,1.65
2023-03-27T07:18:41.015Z,1.66
2023-03-27T07:21:07.396Z,1.95
2023-03-27T07:23:33.821Z,2.38
2023-03-27T07:26:00.296Z,2.83
2023-03-27T07:28:26.655Z,3.07
2023-03-27T07:30:53.033Z,3.39
2023-03-27T07:33:19.456Z,3.42
2023-03-27T07:35:46.093Z,3.68
2023-03-27T07:38:12.494Z,3.72
2023-03-27T07:40:40.552Z,3.78
2023-03-27T07:43:07.309Z,3.84
2023-03-27T07:45:33.771Z,3.67
2023-03-27T07:48:00.221Z,3.70
2023-03-27T07:50:26.584Z,3.35
2023-03-27T07:52:52.964Z,2.78
2023-03-27T07:55:19.378Z,2.70
2023-03-27T07:57:59.872Z,2.93
2023-03-27T08:00:28.525Z,2.90
2023-03-27T08:02:55.019Z,2.53
2023-03-27T08:05:21.478Z,2.75
2023-03-27T08:07:47.831Z,3.07
2023-03-27T08:10:14.201Z,3.10
2023-03-27T08:12:40.556Z,3.40
2023-03-27T08:15:06.903Z,3.56
2023-03-27T08:17:33.295Z,3.65
2023-03-27T08:19:59.791Z,3.35
2023-03-27T08:22:26.168Z,3.44
2023-03-27T08:24:52.544Z,2.69
2023-03-27T08:27:18.932Z,2.90
2023-03-27T08:29:45.285Z,3.05
2023-03-27T08:32:11.633Z,2.77
2023-03-27T08:34:38.007Z,2.47
2023-03-27T08:37:04.391Z,2.53
2023-03-27T08:39:30.743Z,2.09
2023-03-27T08:41:57.125Z,2.25
2023-03-27T08:44:23.534Z,2.27
2023-03-27T08:46:49.966Z,2.65
2023-03-27T08:49:16.348Z,2.24
2023-03-27T08:51:42.730Z,2.49
2023-03-27T08:54:09.070Z,2.18
2023-03-27T08:56:35.460Z,2.44
2023-03-27T08:59:01.828Z,2.01
2023-03-27T09:01:28.325Z,1.95
2023-03-27T09:03:54.800Z,1.78
2023-03-27T09:06:21.226Z,1.81
2023-03-27T09:08:47.554Z,1.90
2023-03-27T09:11:13.925Z,2.10
2023-03-27T09:13:40.322Z,2.28
2023-03-27T09:16:06.695Z,2.70
2023-03-27T09:18:33.093Z,2.71
2023-03-27T09:20:59.413Z,2.47
2023-03-27T09:23:25.796Z,2.50
2023-03-27T09:25:52.142Z,2.30
2023-03-27T09:28:18.522Z,2.12
2023-03-27T09:30:44.908Z,2.12
2023-03-27T09:33:11.267Z,2.24
2023-03-27T09:35:37.645Z,2.30
2023-03-27T09:38:04.054Z,2.12
2023-03-27T09:40:30.505Z,2.17
2023-03-27T09:42:56.838Z,2.25
2023-03-27T09:45:23.180Z,1.88
2023-03-27T09:47:49.576Z,1.92
2023-03-27T09:50:15.956Z,1.48
2023-03-27T09:52:42.356Z,1.64
2023-03-27T09:55:08.694Z,1.94
2023-03-27T09:57:35.017Z,2.08
2023-03-27T10:00:02.489Z,1.94
2023-03-27T10:02:28.866Z,1.89
2023-03-27T10:04:55.278Z,1.96
2023-03-27T10:07:21.668Z,2.03
2023-03-27T10:09:48.015Z,2.18
2023-03-27T10:12:14.403Z,2.11
2023-03-27T10:14:40.749Z,1.95
2023-03-27T10:17:07.229Z,2.12
2023-03-27T10:19:33.718Z,1.80
2023-03-27T10:22:00.094Z,1.92
2023-03-27T10:24:26.459Z,1.68
2023-03-27T10:26:52.841Z,1.83
2023-03-27T10:29:19.190Z,1.76
2023-03-27T10:31:45.560Z,1.90
2023-03-27T10:34:11.922Z,1.96
2023-03-27T10:36:38.348Z,2.03
2023-03-27T10:39:04.746Z,2.04
2023-03-27T10:41:31.088Z,2.05
2023-03-27T10:43:57.495Z,2.22
2023-03-27T10:46:23.944Z,2.08
2023-03-27T10:48:50.373Z,2.18
2023-03-27T10:51:16.716Z,2.05
2023-03-27T10:53:43.197Z,2.12
2023-03-27T10:56:09.669Z,2.11
2023-03-27T10:58:36.015Z,2.12
2023-03-27T11:01:02.480Z,2.19
2023-03-27T11:03:28.992Z,2.49
2023-03-27T11:05:55.416Z,2.44
2023-03-27T11:08:21.842Z,2.18
2023-03-27T11:10:48.201Z,1.87
2023-03-27T11:13:14.581Z,1.83
2023-03-27T11:15:40.913Z,1.98
2023-03-27T11:18:07.348Z,1.77
2023-03-27T11:20:33.747Z,1.87
2023-03-27T11:23:00.112Z,1.95
2023-03-27T11:25:26.472Z,1.82
2023-03-27T11:27:52.838Z,1.95
2023-03-27T11:30:19.183Z,2.04
2023-03-27T11:32:45.574Z,2.12
2023-03-27T11:35:11.960Z,1.82
2023-03-27T11:37:38.352Z,1.93
2023-03-27T11:40:04.693Z,1.99
2023-03-27T11:42:31.157Z,1.92
2023-03-27T11:44:57.569Z,1.92
2023-03-27T11:47:23.952Z,2.13
2023-03-27T11:49:50.353Z,1.95
2023-03-27T11:52:16.698Z,1.88
2023-03-27T11:54:43.081Z,2.09
2023-03-27T11:57:09.457Z,2.07
2023-03-27T11:59:35.845Z,1.87
2023-03-27T12:02:02.316Z,1.99
2023-03-27T12:04:28.721Z,1.95
2023-03-27T12:06:55.124Z,1.82
2023-03-27T12:09:21.473Z,2.09
2023-03-27T12:11:47.855Z,2.18
2023-03-27T12:14:18.456Z,2.04
2023-03-27T12:16:45.341Z,2.05
2023-03-27T12:19:26.896Z,2.04
2023-03-27T12:21:54.634Z,2.21
2023-03-27T12:24:20.984Z,2.26
2023-03-27T12:26:47.373Z,2.82
2023-03-27T12:29:23.347Z,3.24
2023-03-27T12:31:50.680Z,2.22
2023-03-27T12:34:17.141Z,2.01
2023-03-27T12:36:43.483Z,2.19
2023-03-27T12:39:09.847Z,2.17
2023-03-27T12:41:36.190Z,2.28
2023-03-27T12:44:02.567Z,2.36
2023-03-27T12:46:29.001Z,2.17
2023-03-27T12:48:55.392Z,2.19
2023-03-27T12:51:21.738Z,1.96
2023-03-27T12:53:48.393Z,2.20
2023-03-27T12:56:14.829Z,2.30
2023-03-27T12:58:41.268Z,2.21
2023-03-27T13:01:07.712Z,2.13
2023-03-27T13:03:34.238Z,2.31
2023-03-27T13:06:00.707Z,2.11
2023-03-27T13:08:27.150Z,2.59
2023-03-27T13:10:53.519Z,2.05
2023-03-27T13:13:19.891Z,3.02
2023-03-27T13:15:46.304Z,2.96
2023-03-27T13:18:12.669Z,3.02
2023-03-27T13:20:39.040Z,2.26
2023-03-27T13:23:05.378Z,2.21
2023-03-27T13:25:31.771Z,2.39
2023-03-27T13:27:58.131Z,2.14
2023-03-27T13:30:24.509Z,2.88
2023-03-27T13:32:50.860Z,2.75
2023-03-27T13:35:17.223Z,3.06
2023-03-27T13:37:43.596Z,2.50
2023-03-27T13:40:09.941Z,2.28
2023-03-27T13:42:36.278Z,2.26
2023-03-27T13:45:02.646Z,2.36
2023-03-27T13:47:29.054Z,1.87
2023-03-27T13:49:55.432Z,2.09
2023-03-27T13:52:21.812Z,2.39
2023-03-27T13:54:48.161Z,1.83
2023-03-27T13:57:14.597Z,1.90
2023-03-27T13:59:40.987Z,1.82
2023-03-27T14:02:07.355Z,1.64
2023-03-27T14:04:33.764Z,1.80
2023-03-27T14:07:00.152Z,1.89
2023-03-27T14:09:26.509Z,2.08
2023-03-27T14:11:52.842Z,2.29
2023-03-27T14:14:19.219Z,2.10
2023-03-27T14:16:45.628Z,1.89
2023-03-27T14:19:12.087Z,2.09
2023-03-27T14:21:39.151Z,1.86
2023-03-27T14:24:05.579Z,1.93
2023-03-27T14:26:31.969Z,2.09
2023-03-27T14:28:58.320Z,1.99
2023-03-27T14:31:24.728Z,1.69
2023-03-27T14:33:51.133Z,1.84
2023-03-27T14:36:17.510Z,1.86
2023-03-27T14:38:43.873Z,2.01
2023-03-27T14:41:10.254Z,1.95
2023-03-27T14:43:36.592Z,1.89
2023-03-27T14:46:02.950Z,1.91
2023-03-27T14:48:29.374Z,1.71
2023-03-27T14:50:55.940Z,1.71
2023-03-27T14:53:22.544Z,1.70
2023-03-27T14:55:48.933Z,1.98
2023-03-27T14:58:15.325Z,1.79
2023-03-27T15:00:41.678Z,1.97
2023-03-27T15:03:08.071Z,1.99
2023-03-27T15:05:34.465Z,2.24
2023-03-27T15:08:00.821Z,2.33
2023-03-27T15:10:27.207Z,2.44
2023-03-27T15:12:53.597Z,2.13
2023-03-27T15:15:19.941Z,2.53
2023-03-27T15:17:46.304Z,2.40
2023-03-27T15:20:12.769Z,2.03
2023-03-27T15:22:39.160Z,2.43
2023-03-27T15:25:05.564Z,2.21
2023-03-27T15:27:31.944Z,2.16
2023-03-27T15:29:58.610Z,2.08
2023-03-27T15:32:24.970Z,2.26
2023-03-27T15:34:51.370Z,2.24
2023-03-27T15:37:17.753Z,1.65
2023-03-27T15:39:44.136Z,1.40
2023-03-27T15:42:10.531Z,1.23
2023-03-27T15:44:36.885Z,1.58
2023-03-27T15:47:03.275Z,1.65
2023-03-27T15:49:29.646Z,1.73
2023-03-27T15:51:56.019Z,1.44
2023-03-27T15:54:22.533Z,1.29
2023-03-27T15:56:48.994Z,1.52
2023-03-27T15:59:15.404Z,1.53
2023-03-27T16:01:41.937Z,1.62
2023-03-27T16:04:08.497Z,1.35
2023-03-27T16:06:34.961Z,1.38
2023-03-27T16:09:01.345Z,1.37
2023-03-27T16:11:27.693Z,1.66
2023-03-27T16:13:54.029Z,2.09
2023-03-27T16:16:20.371Z,1.63
2023-03-27T16:18:46.729Z,1.41
2023-03-27T16:21:13.116Z,1.51
2023-03-27T16:23:39.460Z,1.47
2023-03-27T16:26:05.823Z,1.21
2023-03-27T16:28:32.199Z,1.24
2023-03-27T16:30:58.582Z,1.50
2023-03-27T16:33:24.943Z,3.85
2023-03-27T16:35:51.377Z,4.64
2023-03-27T16:38:17.753Z,5.00
2023-03-27T16:40:44.135Z,7.34
2023-03-27T16:43:10.485Z,1.83
2023-03-27T16:45:36.881Z,1.72
2023-03-27T16:48:03.269Z,1.71
2023-03-27T16:50:29.753Z,1.76
2023-03-27T16:52:56.166Z,2.41
2023-03-27T16:55:22.514Z,2.57
2023-03-27T16:57:48.942Z,2.79
2023-03-27T17:00:15.311Z,1.72
2023-03-27T17:02:41.697Z,1.34
2023-03-27T17:05:08.184Z,1.64
2023-03-27T17:07:34.569Z,1.64
2023-03-27T17:10:00.972Z,2.20
2023-03-27T17:12:27.366Z,3.44
2023-03-27T17:14:53.717Z,3.35
2023-03-27T17:17:20.060Z,3.28
2023-03-27T17:19:46.452Z,1.52
2023-03-27T17:22:12.826Z,1.37
2023-03-27T17:24:53.377Z,1.49
2023-03-27T17:27:22.815Z,1.51
2023-03-27T17:29:49.190Z,3.05
2023-03-27T17:32:15.534Z,3.35
2023-03-27T17:34:41.858Z,3.25
2023-03-27T17:37:08.263Z,3.22
2023-03-27T17:39:34.599Z,2.83
2023-03-27T17:42:00.984Z,2.30
2023-03-27T17:44:27.588Z,2.36
2023-03-27T17:46:53.989Z,2.09
2023-03-27T17:49:20.362Z,1.83
2023-03-27T17:51:46.739Z,2.37
2023-03-27T17:54:13.102Z,1.93
2023-03-27T17:56:39.497Z,4.32
2023-03-27T17:59:05.866Z,9.29
2023-03-27T18:01:32.309Z,3.40
2023-03-27T18:03:58.780Z,4.76
2023-03-27T18:06:25.268Z,2.29
2023-03-27T18:08:51.620Z,4.41
2023-03-27T18:11:18.179Z,3.34
2023-03-27T18:13:44.628Z,2.77
2023-03-27T18:16:11.081Z,2.51
2023-03-27T18:18:37.504Z,2.41
2023-03-27T18:21:03.917Z,2.58
2023-03-27T18:23:30.257Z,6.25
2023-03-27T18:25:56.674Z,7.38
2023-03-27T18:28:23.218Z,5.31
2023-03-27T18:30:49.552Z,3.02
2023-03-27T18:33:15.933Z,1.88
2023-03-27T18:35:42.324Z,1.99
2023-03-27T18:38:08.675Z,4.63
2023-03-27T18:40:35.060Z,8.04
2023-03-27T18:43:01.453Z,2.10
2023-03-27T18:45:27.902Z,4.40
2023-03-27T18:47:54.283Z,13.49
2023-03-27T18:50:20.649Z,10.14
2023-03-27T18:52:47.033Z,6.24
2023-03-27T18:55:13.382Z,4.47
2023-03-27T18:57:39.745Z,2.57
2023-03-27T19:00:06.153Z,2.31
2023-03-27T19:02:32.676Z,1.97
2023-03-27T19:04:59.116Z,1.77
2023-03-27T19:07:25.457Z,1.61
2023-03-27T19:09:51.841Z,1.79
2023-03-27T19:12:18.183Z,1.54
2023-03-27T19:14:44.561Z,1.70
2023-03-27T19:17:11.012Z,1.72
2023-03-27T19:19:37.456Z,5.40
2023-03-27T19:22:03.847Z,14.77
2023-03-27T19:24:30.228Z,8.34
2023-03-27T19:26:56.624Z,8.15
2023-03-27T19:29:23.015Z,11.69
2023-03-27T19:31:49.412Z,7.90
2023-03-27T19:34:15.814Z,17.98
2023-03-27T19:36:42.201Z,23.22
2023-03-27T19:39:08.592Z,16.70
2023-03-27T19:41:34.970Z,15.14
2023-03-27T19:44:01.318Z,9.86
2023-03-27T19:46:27.715Z,6.67
2023-03-27T19:48:54.122Z,7.42
2023-03-27T19:51:20.504Z,6.19
2023-03-27T19:53:46.888Z,2.18
2023-03-27T19:56:13.269Z,2.91
2023-03-27T19:58:39.660Z,1.96
2023-03-27T20:01:06.031Z,1.83
2023-03-27T20:03:32.508Z,2.49
2023-03-27T20:06:07.816Z,3.54
2023-03-27T20:08:35.110Z,5.77
2023-03-27T20:11:01.641Z,4.55
2023-03-27T20:13:28.114Z,4.18
2023-03-27T20:15:54.530Z,3.79
2023-03-27T20:18:20.958Z,4.67
2023-03-27T20:20:47.341Z,6.63
2023-03-27T20:23:13.681Z,1.70
2023-03-27T20:25:40.058Z,2.16
2023-03-27T20:28:06.459Z,2.39
2023-03-27T20:30:32.804Z,2.51
2023-03-27T20:32:59.218Z,2.94
2023-03-27T20:35:25.627Z,4.09
2023-03-27T20:37:51.973Z,3.90
2023-03-27T20:40:18.310Z,2.74
2023-03-27T20:42:44.676Z,2.06
2023-03-27T20:45:11.029Z,1.84
2023-03-27T20:47:37.375Z,2.39
2023-03-27T20:50:03.718Z,2.31
2023-03-27T20:52:30.088Z,2.39
2023-03-27T20:54:56.450Z,1.92
2023-03-27T20:57:22.853Z,2.15
2023-03-27T20:59:49.311Z,2.05
2023-03-27T21:02:15.714Z,2.17
2023-03-27T21:04:42.116Z,2.21
2023-03-27T21:07:08.513Z,1.89
2023-03-27T21:09:34.855Z,1.92
2023-03-27T21:12:01.207Z,1.85
2023-03-27T21:14:27.565Z,2.36
2023-03-27T21:16:53.955Z,2.04
2023-03-27T21:19:20.356Z,1.88
2023-03-27T21:21:46.735Z,1.96
2023-03-27T21:24:13.087Z,2.07
2023-03-27T21:26:39.443Z,1.97
2023-03-27T21:29:05.773Z,1.74
2023-03-27T21:31:32.136Z,1.85
2023-03-27T21:33:58.493Z,1.85
2023-03-27T21:36:27.109Z,1.62
2023-03-27T21:38:54.417Z,1.85
2023-03-27T21:41:20.762Z,1.94
2023-03-27T21:43:47.169Z,1.95
2023-03-27T21:46:13.548Z,1.92
2023-03-27T21:48:39.962Z,2.04
2023-03-27T21:51:06.379Z,2.06
2023-03-27T21:53:32.767Z,2.40
2023-03-27T21:55:59.393Z,2.06
2023-03-27T21:58:25.899Z,2.26
2023-03-27T22:00:52.313Z,2.15
2023-03-27T22:03:18.711Z,2.17
2023-03-27T22:05:49.296Z,2.12
2023-03-27T22:08:24.044Z,1.80
2023-03-27T22:10:50.383Z,1.75
2023-03-27T22:13:16.767Z,1.75
2023-03-27T22:15:43.161Z,2.00
2023-03-27T22:18:09.606Z,1.81
2023-03-27T22:20:36.061Z,1.98
2023-03-27T22:23:02.448Z,1.95
2023-03-27T22:25:28.824Z,2.05
2023-03-27T22:27:55.211Z,2.22
2023-03-27T22:30:21.567Z,1.92
2023-03-27T22:32:48.005Z,1.73
2023-03-27T22:35:14.419Z,2.17
2023-03-27T22:37:40.813Z,2.20
2023-03-27T22:40:07.209Z,2.28
2023-03-27T22:42:33.600Z,2.23
2023-03-27T22:44:59.981Z,2.24
2023-03-27T22:47:26.387Z,2.15
2023-03-27T22:49:52.759Z,2.13
2023-03-27T22:52:19.136Z,2.12
2023-03-27T22:54:45.527Z,1.95
2023-03-27T22:57:11.947Z,1.91
2023-03-27T22:59:38.370Z,1.87
2023-03-27T23:02:04.815Z,1.88
2023-03-27T23:04:31.220Z,1.89
2023-03-27T23:06:57.554Z,1.96
2023-03-27T23:09:23.879Z,1.88
2023-03-27T23:11:50.222Z,1.89
2023-03-27T23:14:16.546Z,1.73
2023-03-27T23:16:42.943Z,1.58
2023-03-27T23:19:09.335Z,1.77
2023-03-27T23:21:35.773Z,1.73
2023-03-27T23:24:02.163Z,1.65
2023-03-27T23:26:28.511Z,1.74
2023-03-27T23:28:54.873Z,1.59
2023-03-27T23:31:21.244Z,1.77
2023-03-27T23:33:47.642Z,1.79
2023-03-27T23:36:14.078Z,1.82
2023-03-27T23:38:40.461Z,1.86
2023-03-27T23:41:06.854Z,1.78
2023-03-27T23:43:33.207Z,1.82
2023-03-27T23:45:59.810Z,1.70
2023-03-27T23:48:26.557Z,1.68
2023-03-27T23:50:52.926Z,1.67
2023-03-27T23:53:19.280Z,1.82
2023-03-27T23:55:45.649Z,1.40
2023-03-27T23:58:11.990Z,1.52
